METAR Data
IDs: Format: Raw Decoded Include TAF

Data at: 0120 UTC 06 Dec 2019

METAR for:KMRB (Martinsburg/E West V, WV, US)
Text:KMRB 060053Z 17004KT 10SM CLR 02/M06 A3010 RMK AO2 SLP198 T00221056
Temperature: 2.2°C ( 36°F)
Dewpoint: -5.6°C ( 22°F) [RH = 56%]
Pressure (altimeter):30.10 inches Hg (1019.4 mb) [Sea level pressure: 1019.8 mb]
Winds:from the S (170 degrees) at 5 MPH (4 knots; 2.1 m/s)
Visibility:10 or more sm (16+ km)
Ceiling:at least 12,000 feet AGL
Clouds:sky clear below 12,000 feet AGL